createdAt,value
2022-10-12T00:00:53.948Z,11.70
2022-10-12T00:03:46.099Z,11.70
2022-10-12T00:06:38.277Z,11.80
2022-10-12T00:09:30.932Z,11.80
2022-10-12T00:12:23.173Z,11.70
2022-10-12T00:15:15.328Z,11.60
2022-10-12T00:18:08.356Z,11.70
2022-10-12T00:21:07.710Z,11.80
2022-10-12T00:24:01.498Z,11.90
2022-10-12T00:26:53.666Z,11.90
2022-10-12T00:29:45.822Z,11.90
2022-10-12T00:32:37.989Z,11.90
2022-10-12T00:35:30.131Z,12.00
2022-10-12T00:38:22.911Z,12.00
2022-10-12T00:41:16.425Z,12.00
2022-10-12T00:44:40.039Z,12.00
2022-10-12T00:47:41.611Z,11.90
2022-10-12T00:50:35.362Z,11.90
2022-10-12T00:53:31.963Z,11.90
2022-10-12T00:56:27.996Z,11.90
2022-10-12T00:59:25.106Z,11.80
2022-10-12T01:02:18.035Z,11.80
2022-10-12T01:05:12.000Z,11.80
2022-10-12T01:08:04.160Z,11.80
2022-10-12T01:10:56.373Z,11.80
2022-10-12T01:13:48.546Z,11.80
2022-10-12T01:16:49.642Z,11.80
2022-10-12T01:20:23.260Z,11.80
2022-10-12T01:23:18.555Z,11.90
2022-10-12T01:26:28.946Z,12.00
2022-10-12T01:29:33.208Z,12.00
2022-10-12T01:32:53.477Z,11.90
2022-10-12T01:36:32.733Z,11.90
2022-10-12T01:39:38.918Z,11.80
2022-10-12T01:42:34.608Z,11.70
2022-10-12T01:45:26.710Z,11.60
2022-10-12T01:48:19.212Z,11.60
2022-10-12T01:51:17.005Z,11.30
2022-10-12T01:54:18.435Z,11.20
2022-10-12T01:57:24.844Z,11.10
2022-10-12T02:00:18.423Z,10.90
2022-10-12T02:03:18.817Z,10.70
2022-10-12T02:06:15.919Z,10.60
2022-10-12T02:09:20.449Z,10.60
2022-10-12T02:12:23.542Z,10.50
2022-10-12T02:15:17.519Z,10.40
2022-10-12T02:18:13.540Z,10.40
2022-10-12T02:21:07.716Z,10.40
2022-10-12T02:24:05.346Z,10.40
2022-10-12T02:26:58.314Z,10.50
2022-10-12T02:29:50.750Z,10.60
2022-10-12T02:32:55.830Z,10.60
2022-10-12T02:35:56.179Z,10.50
2022-10-12T02:39:10.193Z,10.70
2022-10-12T02:42:08.765Z,10.80
2022-10-12T02:45:05.590Z,10.90
2022-10-12T02:47:59.402Z,11.00
2022-10-12T02:50:55.667Z,11.10
2022-10-12T02:53:48.608Z,11.20
2022-10-12T02:56:47.558Z,11.30
2022-10-12T02:59:39.743Z,11.30
2022-10-12T03:02:31.899Z,11.40
2022-10-12T03:05:23.983Z,11.40
2022-10-12T03:08:16.103Z,11.30
2022-10-12T03:11:11.943Z,11.40
2022-10-12T03:14:05.464Z,11.50
2022-10-12T03:16:57.576Z,11.50
2022-10-12T03:19:49.713Z,11.50
2022-10-12T03:22:41.881Z,11.60
2022-10-12T03:25:34.072Z,11.60
2022-10-12T03:28:26.594Z,11.70
2022-10-12T03:31:18.840Z,11.70
2022-10-12T03:34:11.011Z,11.70
2022-10-12T03:37:03.182Z,11.80
2022-10-12T03:39:55.442Z,11.90
2022-10-12T03:42:47.579Z,11.90
2022-10-12T03:45:39.751Z,12.00
2022-10-12T03:48:31.998Z,11.90
2022-10-12T03:51:24.182Z,11.90
2022-10-12T03:54:16.378Z,11.80
2022-10-12T03:57:08.579Z,11.80
2022-10-12T04:00:00.692Z,11.70
2022-10-12T04:02:52.898Z,11.90
2022-10-12T04:05:44.995Z,11.80
2022-10-12T04:08:38.306Z,11.70
2022-10-12T04:11:32.012Z,11.60
2022-10-12T04:14:24.145Z,11.60
2022-10-12T04:17:17.343Z,11.60
2022-10-12T04:20:11.337Z,11.60
2022-10-12T04:23:03.471Z,11.50
2022-10-12T04:25:55.594Z,11.50
2022-10-12T04:28:47.743Z,11.60
2022-10-12T04:31:40.999Z,11.60
2022-10-12T04:34:33.126Z,11.60
2022-10-12T04:37:27.641Z,11.60
2022-10-12T04:40:19.820Z,11.60
2022-10-12T04:43:11.957Z,11.60
2022-10-12T04:46:04.055Z,11.60
2022-10-12T04:48:56.239Z,11.60
2022-10-12T04:51:48.330Z,11.50
2022-10-12T04:54:40.541Z,11.40
2022-10-12T04:57:32.678Z,11.40
2022-10-12T05:00:24.829Z,11.50
2022-10-12T05:03:16.929Z,11.50
2022-10-12T05:06:09.174Z,11.50
2022-10-12T05:09:01.335Z,11.50
2022-10-12T05:11:53.450Z,11.60
2022-10-12T05:14:45.709Z,11.50
2022-10-12T05:17:38.096Z,11.40
2022-10-12T05:20:30.463Z,11.50
2022-10-12T05:23:22.551Z,11.50
2022-10-12T05:26:14.654Z,11.50
2022-10-12T05:29:06.970Z,11.60
2022-10-12T05:31:59.372Z,11.70
2022-10-12T05:34:51.467Z,11.80
2022-10-12T05:37:43.598Z,11.90
2022-10-12T05:40:35.837Z,12.20
2022-10-12T05:43:28.734Z,12.70
2022-10-12T05:46:20.929Z,13.10
2022-10-12T05:49:13.113Z,13.70
2022-10-12T05:52:05.266Z,13.20
2022-10-12T05:54:57.404Z,12.70
2022-10-12T05:57:51.973Z,12.40
2022-10-12T06:00:44.300Z,12.20
2022-10-12T06:03:36.850Z,12.00
2022-10-12T06:06:29.009Z,11.80
2022-10-12T06:09:21.204Z,11.70
2022-10-12T06:12:13.431Z,11.70
2022-10-12T06:15:06.134Z,11.90
2022-10-12T06:17:58.460Z,11.90
2022-10-12T06:21:08.799Z,11.80
2022-10-12T06:24:05.017Z,11.70
2022-10-12T06:26:57.225Z,11.60
2022-10-12T06:29:49.325Z,11.80
2022-10-12T06:32:42.174Z,11.90
2022-10-12T06:35:34.410Z,11.90
2022-10-12T06:38:26.498Z,12.00
2022-10-12T06:41:18.637Z,12.10
2022-10-12T06:44:10.936Z,12.20
2022-10-12T06:47:03.160Z,12.20
2022-10-12T06:49:55.287Z,12.30
2022-10-12T06:52:47.894Z,12.50
2022-10-12T06:55:40.584Z,12.80
2022-10-12T06:58:32.800Z,13.00
2022-10-12T07:01:25.033Z,13.30
2022-10-12T07:04:18.444Z,13.60
2022-10-12T07:07:10.637Z,13.80
2022-10-12T07:10:04.781Z,14.00
2022-10-12T07:12:56.881Z,14.20
2022-10-12T07:15:51.887Z,14.20
2022-10-12T07:18:44.021Z,14.40
2022-10-12T07:21:36.154Z,14.60
2022-10-12T07:24:36.250Z,14.70
2022-10-12T07:27:28.455Z,14.70
2022-10-12T07:30:20.604Z,14.80
2022-10-12T07:33:13.038Z,14.90
2022-10-12T07:36:15.009Z,14.90
2022-10-12T07:39:09.399Z,15.10
2022-10-12T07:42:01.539Z,15.20
2022-10-12T07:44:53.680Z,15.20
2022-10-12T07:47:46.781Z,15.30
2022-10-12T07:50:39.139Z,15.30
2022-10-12T07:53:31.681Z,15.20
2022-10-12T07:56:23.813Z,15.20
2022-10-12T07:59:16.445Z,15.40
2022-10-12T08:02:10.908Z,15.40
2022-10-12T08:05:03.156Z,15.50
2022-10-12T08:07:55.870Z,15.50
2022-10-12T08:10:47.965Z,15.40
2022-10-12T08:13:40.927Z,15.40
2022-10-12T08:16:33.390Z,15.20
2022-10-12T08:19:25.518Z,15.30
2022-10-12T08:22:17.642Z,15.30
2022-10-12T08:25:09.914Z,15.40
2022-10-12T08:28:02.049Z,15.30
2022-10-12T08:30:54.433Z,15.60
2022-10-12T08:33:46.629Z,15.70
2022-10-12T08:36:38.754Z,15.90
2022-10-12T08:39:30.953Z,16.00
2022-10-12T08:42:47.611Z,15.90
2022-10-12T08:46:00.850Z,15.90
2022-10-12T08:49:03.154Z,16.00
2022-10-12T08:51:59.076Z,16.20
2022-10-12T08:54:51.332Z,16.20
2022-10-12T08:57:47.618Z,16.20
2022-10-12T09:00:43.776Z,16.10
2022-10-12T09:03:43.265Z,16.10
2022-10-12T09:06:44.675Z,16.10
2022-10-12T09:09:51.856Z,16.10
2022-10-12T09:13:00.275Z,16.10
2022-10-12T09:16:27.332Z,16.00
2022-10-12T09:19:21.817Z,16.10
2022-10-12T09:22:19.341Z,16.10
2022-10-12T09:25:14.622Z,16.20
2022-10-12T09:28:17.313Z,16.20
2022-10-12T09:31:34.181Z,16.10
2022-10-12T09:34:26.423Z,16.20
2022-10-12T09:37:24.739Z,16.20
2022-10-12T09:40:22.531Z,16.20
2022-10-12T09:43:15.212Z,16.30
2022-10-12T09:46:13.412Z,16.30
2022-10-12T09:49:05.645Z,16.40
2022-10-12T09:52:00.880Z,16.40
2022-10-12T09:55:23.950Z,16.60
2022-10-12T09:58:20.884Z,16.70
2022-10-12T10:01:25.412Z,16.60
2022-10-12T10:04:24.068Z,16.70
2022-10-12T10:07:33.475Z,16.80
2022-10-12T10:10:30.315Z,17.00
2022-10-12T10:13:31.218Z,17.20
2022-10-12T10:16:25.972Z,17.20
2022-10-12T10:19:21.409Z,17.10
2022-10-12T10:22:13.562Z,16.80
2022-10-12T10:25:06.455Z,16.60
2022-10-12T10:28:24.261Z,16.60
2022-10-12T10:31:25.409Z,16.70
2022-10-12T10:34:17.470Z,16.90
2022-10-12T10:37:22.750Z,17.00
2022-10-12T10:40:29.588Z,17.10
2022-10-12T10:43:31.480Z,17.30
2022-10-12T10:46:27.754Z,17.30
2022-10-12T10:49:30.029Z,17.50
2022-10-12T10:52:30.443Z,17.50
2022-10-12T10:55:42.824Z,17.60
2022-10-12T10:58:51.215Z,17.50
2022-10-12T11:02:16.099Z,17.40
2022-10-12T11:05:28.248Z,17.50
2022-10-12T11:08:26.931Z,17.70
2022-10-12T11:11:25.444Z,17.90
2022-10-12T11:14:21.951Z,18.00
2022-10-12T11:17:42.512Z,18.20
2022-10-12T11:21:02.398Z,18.30
2022-10-12T11:24:11.330Z,18.10
2022-10-12T11:27:22.987Z,18.20
2022-10-12T11:30:19.241Z,18.50
2022-10-12T11:33:35.224Z,18.40
2022-10-12T11:36:30.801Z,18.40
2022-10-12T11:39:34.905Z,18.40
2022-10-12T11:42:42.409Z,18.50
2022-10-12T11:45:41.753Z,18.50
2022-10-12T11:48:41.200Z,18.50
2022-10-12T11:51:33.331Z,18.40
2022-10-12T11:54:55.456Z,18.50
2022-10-12T11:57:49.691Z,18.60
2022-10-12T12:00:50.485Z,18.60
2022-10-12T12:03:45.608Z,18.50
2022-10-12T12:07:17.043Z,18.30
2022-10-12T12:10:37.254Z,18.30
2022-10-12T12:13:30.244Z,18.50
2022-10-12T12:16:26.606Z,18.70
2022-10-12T12:19:41.835Z,18.80
2022-10-12T12:22:49.301Z,18.70
2022-10-12T12:25:41.470Z,18.80
2022-10-12T12:28:34.416Z,18.60
2022-10-12T12:31:28.942Z,18.50
2022-10-12T12:34:21.088Z,18.40
2022-10-12T12:37:13.373Z,18.20
2022-10-12T12:40:06.021Z,18.30
2022-10-12T12:43:29.944Z,18.40
2022-10-12T12:46:23.473Z,18.60
2022-10-12T12:49:43.712Z,18.70
2022-10-12T12:52:39.346Z,18.40
2022-10-12T12:55:40.563Z,18.40
2022-10-12T12:58:43.875Z,18.50
2022-10-12T13:02:05.899Z,18.50
2022-10-12T13:05:16.332Z,18.50
2022-10-12T13:08:17.455Z,18.50
2022-10-12T13:11:47.191Z,18.30
2022-10-12T13:14:42.359Z,18.20
2022-10-12T13:17:56.061Z,18.30
2022-10-12T13:20:49.445Z,18.40
2022-10-12T13:23:44.509Z,18.40
2022-10-12T13:26:37.875Z,18.40
2022-10-12T13:29:43.518Z,18.40
2022-10-12T13:32:44.479Z,18.40
2022-10-12T13:35:43.115Z,18.30
2022-10-12T13:38:39.088Z,18.20
2022-10-12T13:41:32.643Z,18.30
2022-10-12T13:44:29.237Z,18.40
2022-10-12T13:47:27.945Z,18.40
2022-10-12T13:50:21.342Z,18.50
2022-10-12T13:53:16.046Z,18.50
2022-10-12T13:56:17.636Z,18.50
2022-10-12T13:59:19.101Z,18.50
2022-10-12T14:02:23.008Z,18.20
2022-10-12T14:05:21.909Z,17.90
2022-10-12T14:08:23.263Z,17.70
2022-10-12T14:11:17.337Z,17.60
2022-10-12T14:14:36.461Z,17.50
2022-10-12T14:17:28.652Z,17.70
2022-10-12T14:20:31.455Z,17.80
2022-10-12T14:23:24.943Z,17.90
2022-10-12T14:26:26.011Z,18.10
2022-10-12T14:29:39.291Z,18.10
2022-10-12T14:32:39.006Z,18.20
2022-10-12T14:35:31.514Z,18.10
2022-10-12T14:38:40.236Z,18.00
2022-10-12T14:41:50.746Z,18.00
2022-10-12T14:44:43.717Z,17.90
2022-10-12T14:47:39.250Z,17.80
2022-10-12T14:50:32.828Z,17.80
2022-10-12T14:53:29.199Z,17.90
2022-10-12T14:56:21.331Z,17.90
2022-10-12T14:59:13.483Z,17.80
2022-10-12T15:02:15.675Z,17.90
2022-10-12T15:05:10.301Z,17.90
2022-10-12T15:08:09.143Z,17.90
2022-10-12T15:11:01.486Z,17.80
2022-10-12T15:13:53.593Z,17.90
2022-10-12T15:16:45.739Z,17.90
2022-10-12T15:19:37.963Z,17.80
2022-10-12T15:22:30.079Z,17.80
2022-10-12T15:25:28.307Z,17.80
2022-10-12T15:28:23.500Z,17.70
2022-10-12T15:31:18.076Z,17.60
2022-10-12T15:34:15.404Z,17.60
2022-10-12T15:37:09.228Z,17.50
2022-10-12T15:40:01.706Z,17.50
2022-10-12T15:42:53.883Z,17.40
2022-10-12T15:45:46.014Z,17.40
2022-10-12T15:48:40.153Z,17.30
2022-10-12T15:51:37.926Z,17.20
2022-10-12T15:54:30.085Z,17.20
2022-10-12T15:57:22.220Z,17.20
2022-10-12T16:00:17.232Z,17.10
2022-10-12T16:03:22.881Z,17.00
2022-10-12T16:06:18.013Z,16.80
2022-10-12T16:09:10.158Z,16.70
2022-10-12T16:12:02.308Z,16.60
2022-10-12T16:14:54.425Z,16.50
2022-10-12T16:17:46.540Z,16.50
2022-10-12T16:20:41.324Z,16.40
2022-10-12T16:23:35.678Z,16.40
2022-10-12T16:26:27.824Z,16.30
2022-10-12T16:29:20.024Z,16.20
2022-10-12T16:32:12.310Z,16.20
2022-10-12T16:35:05.804Z,16.20
2022-10-12T16:37:59.004Z,16.10
2022-10-12T16:40:51.138Z,16.00
2022-10-12T16:43:43.878Z,15.90
2022-10-12T16:46:37.079Z,15.90
2022-10-12T16:49:29.317Z,15.80
2022-10-12T16:52:25.363Z,15.80
2022-10-12T16:55:18.354Z,15.80
2022-10-12T16:58:10.469Z,15.70
2022-10-12T17:01:13.466Z,15.60
2022-10-12T17:04:05.673Z,15.50
2022-10-12T17:06:57.792Z,15.40
2022-10-12T17:09:49.965Z,15.30
2022-10-12T17:12:42.158Z,15.20
2022-10-12T17:15:34.287Z,15.20
2022-10-12T17:18:26.421Z,15.10
2022-10-12T17:21:18.627Z,14.90
2022-10-12T17:24:12.261Z,14.70
2022-10-12T17:27:06.244Z,14.70
2022-10-12T17:29:59.523Z,14.70
2022-10-12T17:32:51.638Z,14.70
2022-10-12T17:35:43.738Z,14.60
2022-10-12T17:38:36.745Z,14.10
2022-10-12T17:41:29.522Z,13.80
2022-10-12T17:44:21.999Z,13.60
2022-10-12T17:47:14.298Z,13.30
2022-10-12T17:50:07.072Z,13.10
2022-10-12T17:52:59.400Z,12.90
2022-10-12T17:55:53.564Z,12.90
2022-10-12T17:58:52.288Z,13.00
2022-10-12T18:01:44.659Z,13.20
2022-10-12T18:04:37.009Z,13.30
2022-10-12T18:07:29.987Z,13.50
2022-10-12T18:10:24.726Z,13.60
2022-10-12T18:13:19.842Z,13.70
2022-10-12T18:16:11.996Z,13.70
2022-10-12T18:19:06.250Z,13.80
2022-10-12T18:21:58.396Z,13.80
2022-10-12T18:24:50.669Z,13.80
2022-10-12T18:27:43.282Z,13.80
2022-10-12T18:30:35.724Z,13.80
2022-10-12T18:33:28.136Z,13.80
2022-10-12T18:36:20.872Z,13.80
2022-10-12T18:39:13.076Z,13.90
2022-10-12T18:42:05.237Z,13.90
2022-10-12T18:44:57.352Z,13.90
2022-10-12T18:47:49.687Z,13.80
2022-10-12T18:50:41.839Z,13.80
2022-10-12T18:53:35.093Z,13.80
2022-10-12T18:56:28.274Z,13.80
2022-10-12T18:59:20.513Z,13.80
2022-10-12T19:02:12.618Z,13.80
2022-10-12T19:05:05.084Z,13.80
2022-10-12T19:07:57.193Z,13.80
2022-10-12T19:10:49.323Z,13.70
2022-10-12T19:13:41.974Z,13.70
2022-10-12T19:16:35.161Z,13.70
2022-10-12T19:19:27.295Z,13.60
2022-10-12T19:22:19.813Z,13.60
2022-10-12T19:25:12.128Z,13.60
2022-10-12T19:28:04.300Z,13.50
2022-10-12T19:30:56.467Z,13.60
2022-10-12T19:33:49.564Z,13.60
2022-10-12T19:36:42.297Z,13.60
2022-10-12T19:39:34.796Z,13.50
2022-10-12T19:42:26.923Z,13.50
2022-10-12T19:45:19.039Z,13.40
2022-10-12T19:48:12.318Z,13.40
2022-10-12T19:51:08.129Z,13.30
2022-10-12T19:54:01.794Z,13.30
2022-10-12T19:56:53.887Z,13.20
2022-10-12T19:59:45.989Z,13.10
2022-10-12T20:02:38.675Z,13.10
2022-10-12T20:05:30.788Z,13.10
2022-10-12T20:08:23.290Z,13.00
2022-10-12T20:11:20.592Z,12.90
2022-10-12T20:14:16.015Z,12.90
2022-10-12T20:17:08.219Z,12.90
2022-10-12T20:20:00.327Z,12.80
2022-10-12T20:22:52.428Z,12.80
2022-10-12T20:25:54.733Z,12.80
2022-10-12T20:28:47.590Z,12.80
2022-10-12T20:31:39.764Z,12.80
2022-10-12T20:34:31.979Z,12.80
2022-10-12T20:37:24.223Z,12.70
2022-10-12T20:40:16.423Z,12.70
2022-10-12T20:43:08.596Z,12.70
2022-10-12T20:46:05.045Z,12.70
2022-10-12T20:48:59.446Z,12.60
2022-10-12T20:51:51.797Z,12.30
2022-10-12T20:54:43.967Z,12.00
2022-10-12T20:57:36.370Z,11.90
2022-10-12T21:00:28.517Z,11.70
2022-10-12T21:03:20.620Z,11.60
2022-10-12T21:06:15.724Z,11.60
2022-10-12T21:09:08.230Z,11.60
2022-10-12T21:12:00.435Z,11.60
2022-10-12T21:14:52.690Z,11.50
2022-10-12T21:17:44.824Z,11.30
2022-10-12T21:20:36.943Z,11.20
2022-10-12T21:23:29.421Z,11.10
2022-10-12T21:26:23.742Z,11.10
2022-10-12T21:29:15.922Z,11.10
2022-10-12T21:32:08.054Z,11.10
2022-10-12T21:35:00.212Z,11.10
2022-10-12T21:37:52.353Z,11.10
2022-10-12T21:40:44.740Z,11.00
2022-10-12T21:43:38.007Z,11.00
2022-10-12T21:46:32.558Z,11.20
2022-10-12T21:49:24.749Z,11.30
2022-10-12T21:52:17.102Z,11.40
2022-10-12T21:55:09.628Z,11.50
2022-10-12T21:58:01.825Z,11.60
2022-10-12T22:00:53.999Z,11.70
2022-10-12T22:03:48.065Z,11.70
2022-10-12T22:06:41.350Z,11.70
2022-10-12T22:09:33.703Z,11.90
2022-10-12T22:12:25.843Z,12.00
2022-10-12T22:15:18.371Z,12.00
2022-10-12T22:18:10.515Z,12.00
2022-10-12T22:21:11.287Z,11.90
2022-10-12T22:24:03.821Z,11.90
2022-10-12T22:26:55.967Z,11.90
2022-10-12T22:29:48.096Z,11.90
2022-10-12T22:32:40.206Z,12.00
2022-10-12T22:35:32.302Z,12.00
2022-10-12T22:38:24.899Z,11.90
2022-10-12T22:41:22.096Z,12.00
2022-10-12T22:44:14.203Z,11.90
2022-10-12T22:47:06.592Z,11.90
2022-10-12T22:49:58.718Z,11.90
2022-10-12T22:52:50.838Z,11.90
2022-10-12T22:55:44.147Z,11.90
2022-10-12T22:58:36.274Z,11.90
2022-10-12T23:01:28.874Z,11.80
2022-10-12T23:04:21.052Z,11.80
2022-10-12T23:07:13.126Z,11.80
2022-10-12T23:10:05.688Z,11.80
2022-10-12T23:12:58.420Z,11.70
2022-10-12T23:15:50.531Z,11.80
2022-10-12T23:18:42.836Z,11.90
2022-10-12T23:21:35.385Z,11.80
2022-10-12T23:24:27.582Z,11.70
2022-10-12T23:27:19.701Z,11.70
2022-10-12T23:30:11.976Z,11.70
2022-10-12T23:33:04.175Z,11.50
2022-10-12T23:36:02.028Z,11.60
2022-10-12T23:38:54.200Z,11.60
2022-10-12T23:41:46.300Z,11.60
2022-10-12T23:44:38.398Z,11.50
2022-10-12T23:47:30.630Z,11.40
2022-10-12T23:50:22.751Z,11.40
2022-10-12T23:53:15.235Z,11.30
2022-10-12T23:56:07.538Z,11.30
2022-10-12T23:59:00.603Z,11.30
